createdAt,value
2023-01-26T00:04:12.220Z,43.05
2023-01-26T00:09:15.304Z,37.03
2023-01-26T00:14:16.722Z,37.70
2023-01-26T00:19:18.300Z,41.72
2023-01-26T00:24:19.761Z,41.28
2023-01-26T00:29:21.369Z,43.95
2023-01-26T00:34:22.816Z,49.58
2023-01-26T00:39:24.233Z,49.90
2023-01-26T00:44:25.633Z,47.72
2023-01-26T00:49:27.070Z,46.08
2023-01-26T00:54:28.736Z,41.17
2023-01-26T00:59:32.295Z,37.72
2023-01-26T01:04:33.887Z,36.60
2023-01-26T01:09:35.388Z,37.90
2023-01-26T01:14:36.817Z,36.55
2023-01-26T01:19:38.249Z,35.97
2023-01-26T01:24:39.676Z,36.17
2023-01-26T01:29:41.121Z,34.35
2023-01-26T01:34:42.525Z,37.42
2023-01-26T01:39:44.011Z,41.35
2023-01-26T01:45:06.814Z,43.33
2023-01-26T01:50:17.018Z,39.03
2023-01-26T01:55:19.419Z,39.00
2023-01-26T02:00:23.550Z,38.03
2023-01-26T02:05:32.634Z,40.10
2023-01-26T02:10:34.173Z,38.15
2023-01-26T02:15:36.126Z,39.15
2023-01-26T02:20:50.683Z,37.65
2023-01-26T02:25:52.824Z,41.13
2023-01-26T02:30:55.928Z,50.05
2023-01-26T02:35:58.043Z,51.80
2023-01-26T02:41:05.391Z,48.35
2023-01-26T02:46:06.887Z,55.72
2023-01-26T02:51:08.396Z,53.85
2023-01-26T02:56:09.888Z,56.47
2023-01-26T03:01:11.444Z,59.67
2023-01-26T03:06:13.760Z,58.45
2023-01-26T03:11:15.221Z,55.95
2023-01-26T03:16:18.531Z,56.08
2023-01-26T03:21:38.537Z,58.65
2023-01-26T03:26:59.084Z,53.33
2023-01-26T03:32:00.841Z,53.08
2023-01-26T03:37:02.410Z,49.92
2023-01-26T03:42:23.217Z,52.22
2023-01-26T03:47:43.304Z,56.80
2023-01-26T03:53:03.445Z,51.85
2023-01-26T03:58:04.874Z,54.60
2023-01-26T04:03:24.977Z,49.25
2023-01-26T04:08:29.501Z,50.22
2023-01-26T04:13:49.330Z,54.97
2023-01-26T04:19:09.505Z,50.72
2023-01-26T04:24:16.818Z,49.70
2023-01-26T04:29:18.943Z,52.25
2023-01-26T04:34:20.396Z,41.85
2023-01-26T04:39:21.815Z,42.53
2023-01-26T04:44:23.270Z,41.58
2023-01-26T04:49:24.762Z,38.97
2023-01-26T04:54:26.296Z,37.05
2023-01-26T04:59:27.974Z,35.30
2023-01-26T05:04:29.481Z,38.80
2023-01-26T05:09:31.130Z,38.90
2023-01-26T05:14:32.548Z,39.90
2023-01-26T05:19:33.959Z,41.55
2023-01-26T05:24:35.408Z,37.10
2023-01-26T05:29:36.861Z,39.15
2023-01-26T05:34:38.520Z,39.88
2023-01-26T05:39:39.955Z,43.45
2023-01-26T05:44:41.359Z,42.17
2023-01-26T05:49:45.893Z,39.83
2023-01-26T05:54:47.654Z,40.90
2023-01-26T05:59:49.095Z,44.65
2023-01-26T06:04:50.657Z,39.28
2023-01-26T06:09:52.730Z,38.58
2023-01-26T06:14:54.137Z,35.63
2023-01-26T06:19:55.566Z,38.05
2023-01-26T06:24:56.964Z,38.13
2023-01-26T06:29:58.407Z,39.78
2023-01-26T06:34:59.850Z,37.95
2023-01-26T06:40:01.310Z,40.08
2023-01-26T06:45:02.854Z,33.92
2023-01-26T06:50:04.606Z,37.83
2023-01-26T06:55:06.257Z,37.60
2023-01-26T07:00:08.556Z,39.55
2023-01-26T07:05:11.185Z,42.55
2023-01-26T07:10:14.070Z,39.90
2023-01-26T07:15:15.568Z,40.95
2023-01-26T07:20:17.071Z,48.20
2023-01-26T07:25:18.949Z,53.63
2023-01-26T07:30:20.361Z,57.53
2023-01-26T07:35:21.797Z,60.17
2023-01-26T07:40:23.249Z,60.80
2023-01-26T07:45:24.710Z,58.65
2023-01-26T07:50:26.976Z,56.85
2023-01-26T07:55:28.493Z,59.50
2023-01-26T08:00:30.248Z,52.50
2023-01-26T08:05:32.357Z,52.40
2023-01-26T08:10:33.992Z,49.45
2023-01-26T08:15:35.415Z,45.88
2023-01-26T08:20:36.825Z,45.05
2023-01-26T08:25:38.244Z,51.30
2023-01-26T08:30:39.898Z,53.10
2023-01-26T08:35:41.362Z,47.25
2023-01-26T08:40:42.784Z,43.03
2023-01-26T08:45:47.485Z,46.00
2023-01-26T08:50:53.196Z,46.05
2023-01-26T08:55:54.640Z,46.05
2023-01-26T09:00:56.077Z,38.65
2023-01-26T09:06:00.395Z,41.13
2023-01-26T09:11:02.085Z,37.90
2023-01-26T09:16:05.371Z,41.40
2023-01-26T09:21:08.420Z,44.03
2023-01-26T09:26:10.010Z,38.70
2023-01-26T09:31:12.351Z,36.35
2023-01-26T09:36:13.921Z,39.58
2023-01-26T09:41:42.771Z,42.35
2023-01-26T09:47:13.551Z,40.35
2023-01-26T09:52:37.981Z,35.05
2023-01-26T09:57:47.859Z,35.10
2023-01-26T10:03:02.744Z,37.10
2023-01-26T10:08:08.297Z,37.53
2023-01-26T10:13:13.889Z,35.58
2023-01-26T10:18:22.131Z,34.55
2023-01-26T10:23:28.936Z,33.80
2023-01-26T10:28:35.156Z,35.30
2023-01-26T10:33:37.999Z,37.03
2023-01-26T10:38:41.955Z,33.55
2023-01-26T10:43:53.318Z,38.85
2023-01-26T10:48:58.374Z,38.25
2023-01-26T10:54:23.623Z,39.05
2023-01-26T10:59:35.029Z,37.55
2023-01-26T11:04:36.502Z,35.42
2023-01-26T11:09:37.994Z,38.08
2023-01-26T11:14:39.449Z,40.65
2023-01-26T11:20:03.023Z,46.95
2023-01-26T11:25:23.287Z,41.08
2023-01-26T11:30:34.843Z,46.05
2023-01-26T11:35:39.027Z,39.40
2023-01-26T11:40:51.319Z,37.15
2023-01-26T11:46:01.677Z,44.53
2023-01-26T11:51:05.517Z,46.63
2023-01-26T11:56:21.182Z,46.83
2023-01-26T12:01:30.807Z,62.30
2023-01-26T12:06:42.109Z,46.60
2023-01-26T12:11:55.018Z,45.25
2023-01-26T12:17:25.136Z,50.60
2023-01-26T12:22:34.209Z,49.05
2023-01-26T12:27:42.780Z,49.00
2023-01-26T12:32:44.358Z,52.65
2023-01-26T12:38:12.190Z,45.13
2023-01-26T12:43:18.559Z,56.25
2023-01-26T12:48:31.228Z,47.15
2023-01-26T12:53:46.856Z,42.78
2023-01-26T12:58:51.542Z,46.80
2023-01-26T13:03:58.971Z,46.60
2023-01-26T13:09:22.758Z,47.70
2023-01-26T13:14:42.385Z,43.42
2023-01-26T13:19:43.919Z,46.90
2023-01-26T13:24:48.611Z,45.35
2023-01-26T13:29:55.343Z,50.65
2023-01-26T13:34:58.770Z,49.78
2023-01-26T13:40:05.868Z,50.85
2023-01-26T13:45:53.663Z,47.42
2023-01-26T13:51:00.637Z,46.53
2023-01-26T13:56:04.736Z,39.28
2023-01-26T14:01:11.901Z,46.10
2023-01-26T14:06:22.614Z,39.47
2023-01-26T14:11:27.595Z,43.67
2023-01-26T14:16:33.757Z,40.95
2023-01-26T14:21:55.833Z,45.53
2023-01-26T14:26:57.539Z,40.42
2023-01-26T14:31:59.984Z,41.15
2023-01-26T14:37:13.984Z,42.75
2023-01-26T14:42:18.812Z,45.15
2023-01-26T14:47:28.633Z,44.38
2023-01-26T14:52:39.465Z,43.67
2023-01-26T14:57:40.973Z,42.55
2023-01-26T15:02:46.643Z,43.00
2023-01-26T15:07:56.656Z,40.05
2023-01-26T15:13:07.247Z,40.63
2023-01-26T15:18:14.569Z,45.92
2023-01-26T15:23:25.851Z,46.47
2023-01-26T15:28:27.612Z,44.65
2023-01-26T15:33:45.088Z,42.17
2023-01-26T15:38:47.177Z,42.70
2023-01-26T15:43:48.574Z,46.30
2023-01-26T15:48:49.999Z,48.65
2023-01-26T15:53:51.467Z,50.47
2023-01-26T15:58:52.908Z,50.15
2023-01-26T16:03:54.451Z,46.33
2023-01-26T16:08:56.976Z,50.25
2023-01-26T16:14:03.510Z,55.70
2023-01-26T16:19:05.650Z,54.10
2023-01-26T16:24:07.365Z,48.92
2023-01-26T16:29:08.853Z,47.53
2023-01-26T16:34:10.268Z,54.70
2023-01-26T16:39:12.089Z,61.38
2023-01-26T16:44:15.079Z,50.25
2023-01-26T16:49:16.793Z,50.70
2023-01-26T16:54:18.257Z,57.40
2023-01-26T16:59:19.724Z,60.28
2023-01-26T17:04:21.150Z,58.67
2023-01-26T17:09:23.818Z,54.58
2023-01-26T17:14:25.384Z,51.45
2023-01-26T17:19:27.025Z,52.92
2023-01-26T17:24:28.568Z,44.78
2023-01-26T17:29:30.129Z,55.70
2023-01-26T17:34:31.611Z,57.03
2023-01-26T17:39:33.107Z,54.25
2023-01-26T17:44:34.549Z,50.47
2023-01-26T17:49:37.467Z,47.53
2023-01-26T17:54:39.929Z,48.20
2023-01-26T17:59:41.401Z,48.42
2023-01-26T18:04:42.897Z,51.67
2023-01-26T18:09:44.382Z,53.95
2023-01-26T18:14:45.864Z,51.53
2023-01-26T18:19:47.314Z,48.20
2023-01-26T18:24:48.765Z,50.90
2023-01-26T18:29:50.211Z,45.08
2023-01-26T18:34:51.659Z,51.97
2023-01-26T18:39:53.137Z,52.83
2023-01-26T18:45:00.763Z,58.03
2023-01-26T18:50:02.714Z,60.88
2023-01-26T18:55:04.519Z,62.17
2023-01-26T19:00:08.167Z,59.10
2023-01-26T19:05:10.091Z,53.08
2023-01-26T19:10:11.679Z,56.28
2023-01-26T19:15:13.387Z,58.40
2023-01-26T19:20:15.050Z,64.15
2023-01-26T19:25:16.492Z,64.28
2023-01-26T19:30:18.976Z,52.50
2023-01-26T19:35:21.684Z,58.08
2023-01-26T19:40:24.938Z,55.63
2023-01-26T19:45:27.590Z,58.38
2023-01-26T19:50:29.033Z,58.38
2023-01-26T19:55:32.513Z,58.63
2023-01-26T20:00:33.989Z,56.63
2023-01-26T20:05:37.054Z,59.00
2023-01-26T20:10:38.722Z,61.50
2023-01-26T20:15:40.488Z,66.60
2023-01-26T20:20:41.919Z,65.78
2023-01-26T20:25:43.655Z,69.38
2023-01-26T20:30:45.543Z,57.50
2023-01-26T20:35:47.004Z,68.38
2023-01-26T20:40:48.423Z,68.57
2023-01-26T20:45:50.006Z,69.10
2023-01-26T20:50:52.771Z,65.45
2023-01-26T20:55:58.686Z,63.17
2023-01-26T21:01:05.349Z,68.65
2023-01-26T21:06:11.225Z,68.95
2023-01-26T21:11:14.802Z,69.45
2023-01-26T21:16:17.443Z,73.25
2023-01-26T21:21:19.782Z,63.20
2023-01-26T21:26:23.819Z,70.13
2023-01-26T21:31:28.434Z,71.18
2023-01-26T21:36:31.471Z,72.93
2023-01-26T21:41:52.469Z,68.93
2023-01-26T21:47:03.682Z,73.82
2023-01-26T21:52:23.420Z,74.65
2023-01-26T21:57:43.686Z,81.75
2023-01-26T22:02:48.645Z,115.60
2023-01-26T22:07:50.057Z,93.07
2023-01-26T22:12:51.647Z,100.35
2023-01-26T22:17:53.069Z,80.45
2023-01-26T22:22:54.474Z,76.70
2023-01-26T22:27:55.944Z,72.97
2023-01-26T22:32:57.389Z,68.40
2023-01-26T22:38:00.134Z,66.30
2023-01-26T22:43:01.560Z,54.10
2023-01-26T22:48:03.080Z,50.30
2023-01-26T22:53:04.515Z,48.50
2023-01-26T22:58:05.935Z,35.40
2023-01-26T23:03:07.445Z,36.65
2023-01-26T23:08:08.857Z,38.20
2023-01-26T23:13:10.265Z,43.70
2023-01-26T23:18:11.702Z,62.63
2023-01-26T23:23:13.326Z,77.30
2023-01-26T23:28:14.734Z,79.00
2023-01-26T23:33:17.738Z,82.82
2023-01-26T23:38:21.443Z,61.38
2023-01-26T23:43:23.737Z,44.05
2023-01-26T23:48:25.606Z,70.47
2023-01-26T23:53:28.099Z,75.97
2023-01-26T23:58:29.550Z,78.80
